Alpine Link — V7SZ7 — position and weather

sailwx.info

Track history (hours):
 
Tides and Currents Weather Stations Pressure Air Temp Water Temp Dewpoint Dewpoint Depression Visibility Wind Speed Wind Dir Waves Ship Positions

Alpine Link

Last reported at 2016-May-05 17:33 UTC. Time now 2016-May-05 18:06 UTC.
Position N 09°31' W 013°43'.

Length 183 m; draft 8.5 m.

Type: Tanker. MMSI: 538003758.

Date/timePositionNaut miles runAvg speedWind from/ knotsBaromVisibWave heightAir tempDewpointWater temp
2016-May-05 17:33N 09°31' W 013°43'0 0.0
2016-May-05 16:31N 09°31' W 013°43'0 0.0
2016-May-05 15:31N 09°31' W 013°43'10 0.2
2016-May-03 23:32N 09°22' W 013°42'0 0.0
2016-May-03 22:32N 09°22' W 013°42'0 0.0
2016-May-03 21:32N 09°22' W 013°42'0 0.0
2016-May-03 14:17N 09°22' W 013°42'6 8.1
2016-May-03 13:33N 09°19' W 013°48'1211.4
2016-May-03 12:28N 09°18' W 014°00'1413.0
2016-May-03 11:24N 09°25' W 014°13'1713.2
2016-May-03 10:05N 09°33' W 014°28'1013.3
2016-May-03 09:20N 09°38' W 014°37'  
2016-May-01 01:07N 10°18' W 016°49'3813.1
2016-Apr-30 22:14N 10°46' W 017°16'1013.4
2016-Apr-30 21:29N 10°54' W 017°22'6312.7
2016-Apr-30 16:30N 11°51' W 017°49'9813.6
2016-Apr-30 09:19N 13°29' W 017°58'1113.9
2016-Apr-30 08:33N 13°39' W 017°59'1413.9
2016-Apr-30 07:33N 13°53' W 018°01'1414.2
2016-Apr-30 06:33N 14°07' W 018°02'1714.0
2016-Apr-30 05:23N 14°24' W 018°03'1213.9
2016-Apr-30 04:30N 14°36' W 018°04'1313.6
2016-Apr-30 03:33N 14°49' W 018°06'1413.5
2016-Apr-30 02:33N 15°02' W 018°05'1313.4
2016-Apr-30 01:33N 15°16' W 018°05'1313.4
2016-Apr-30 00:34N 15°29' W 018°04'1413.5
2016-Apr-29 23:33N 15°42' W 018°04'1313.4
2016-Apr-29 22:34N 15°56' W 018°03'  
2016-Apr-27 14:08N 28°02' W 015°02'813.6
2016-Apr-27 13:33N 28°10' W 014°59'1313.4
2016-Apr-27 12:33N 28°23' W 014°55'1413.6
2016-Apr-27 11:33N 28°36' W 014°51'1413.5
2016-Apr-27 10:33N 28°49' W 014°47'1413.4
2016-Apr-27 09:29N 29°03' W 014°43'1313.7
2016-Apr-27 08:33N 29°15' W 014°40'1413.8
2016-Apr-27 07:33N 29°29' W 014°36'1413.6
2016-Apr-27 06:33N 29°42' W 014°33'1413.6
2016-Apr-27 05:33N 29°55' W 014°29'1413.7
2016-Apr-27 04:33N 30°09' W 014°25'2913.6
2016-Apr-27 02:24N 30°37' W 014°18'2613.9
2016-Apr-27 00:33N 31°02' W 014°11'1413.6
2016-Apr-26 23:32N 31°15' W 014°07'28813.4
2016-Apr-26 02:07N 35°55' W 012°46'813.2
2016-Apr-26 01:33N 36°03' W 012°44'1513.2
2016-Apr-26 00:24N 36°17' W 012°40'2913.3
2016-Apr-25 22:15N 36°45' W 012°31'1013.6
2016-Apr-25 21:33N 36°54' W 012°28'1313.4
2016-Apr-25 20:33N 37°07' W 012°25'1413.4
2016-Apr-25 19:33N 37°20' W 012°20'1413.8
2016-Apr-25 18:33N 37°34' W 012°16'  
Track history (hours):
 
Tides and Currents Weather Stations Pressure Air Temp Water Temp Dewpoint Dewpoint Depression Visibility Wind Speed Wind Dir Waves Ship Positions

Alpine Link

Last reported at 2016-May-05 17:33 UTC. Time now 2016-May-05 18:06 UTC.
Position N 09°31' W 013°43'.

Length 183 m; draft 8.5 m.

Type: Tanker. MMSI: 538003758.

Date/timePositionNaut miles runAvg speedWind from/ knotsBaromVisibWave heightAir tempDewpointWater temp
2016-May-05 17:33N 09°31' W 013°43'0 0.0
2016-May-05 16:31N 09°31' W 013°43'0 0.0
2016-May-05 15:31N 09°31' W 013°43'10 0.2
2016-May-03 23:32N 09°22' W 013°42'0 0.0
2016-May-03 22:32N 09°22' W 013°42'0 0.0
2016-May-03 21:32N 09°22' W 013°42'0 0.0
2016-May-03 14:17N 09°22' W 013°42'6 8.1
2016-May-03 13:33N 09°19' W 013°48'1211.4
2016-May-03 12:28N 09°18' W 014°00'1413.0
2016-May-03 11:24N 09°25' W 014°13'1713.2
2016-May-03 10:05N 09°33' W 014°28'1013.3
2016-May-03 09:20N 09°38' W 014°37'  
2016-May-01 01:07N 10°18' W 016°49'3813.1
2016-Apr-30 22:14N 10°46' W 017°16'1013.4
2016-Apr-30 21:29N 10°54' W 017°22'6312.7
2016-Apr-30 16:30N 11°51' W 017°49'9813.6
2016-Apr-30 09:19N 13°29' W 017°58'1113.9
2016-Apr-30 08:33N 13°39' W 017°59'1413.9
2016-Apr-30 07:33N 13°53' W 018°01'1414.2
2016-Apr-30 06:33N 14°07' W 018°02'1714.0
2016-Apr-30 05:23N 14°24' W 018°03'1213.9
2016-Apr-30 04:30N 14°36' W 018°04'1313.6
2016-Apr-30 03:33N 14°49' W 018°06'1413.5
2016-Apr-30 02:33N 15°02' W 018°05'1313.4
2016-Apr-30 01:33N 15°16' W 018°05'1313.4
2016-Apr-30 00:34N 15°29' W 018°04'1413.5
2016-Apr-29 23:33N 15°42' W 018°04'1313.4
2016-Apr-29 22:34N 15°56' W 018°03'  
2016-Apr-27 14:08N 28°02' W 015°02'813.6
2016-Apr-27 13:33N 28°10' W 014°59'1313.4
2016-Apr-27 12:33N 28°23' W 014°55'1413.6
2016-Apr-27 11:33N 28°36' W 014°51'1413.5
2016-Apr-27 10:33N 28°49' W 014°47'1413.4
2016-Apr-27 09:29N 29°03' W 014°43'1313.7
2016-Apr-27 08:33N 29°15' W 014°40'1413.8
2016-Apr-27 07:33N 29°29' W 014°36'1413.6
2016-Apr-27 06:33N 29°42' W 014°33'1413.6
2016-Apr-27 05:33N 29°55' W 014°29'1413.7
2016-Apr-27 04:33N 30°09' W 014°25'2913.6
2016-Apr-27 02:24N 30°37' W 014°18'2613.9
2016-Apr-27 00:33N 31°02' W 014°11'1413.6
2016-Apr-26 23:32N 31°15' W 014°07'28813.4
2016-Apr-26 02:07N 35°55' W 012°46'813.2
2016-Apr-26 01:33N 36°03' W 012°44'1513.2
2016-Apr-26 00:24N 36°17' W 012°40'2913.3
2016-Apr-25 22:15N 36°45' W 012°31'1013.6
2016-Apr-25 21:33N 36°54' W 012°28'1313.4
2016-Apr-25 20:33N 37°07' W 012°25'1413.4
2016-Apr-25 19:33N 37°20' W 012°20'1413.8
2016-Apr-25 18:33N 37°34' W 012°16'  

Dump ship's entire track history